Time;durP1;ratioP1;P1;durP2;ratioP2;P2;SDS_P1;SDS_P2;PMS_P1;PMS_P2;Temp;Humidity;BMP_temperature;BMP_pressure;BME280_temperature;BME280_humidity;BME280_pressure;Samples;Min_cycle;Max_cycle;Signal;HPM_P1;HPM_P2
2022/11/11 00:00:27;;;;;;;2.73;0.53;;;12.00;99.90;;;;;;5055031;28;20319;-87
2022/11/11 00:02:54;;;;;;;3.77;0.73;;;12.00;99.90;;;;;;5073069;28;20404;-86
2022/11/11 00:05:20;;;;;;;2.83;0.63;;;12.00;99.90;;;;;;5072768;28;20183;-87
2022/11/11 00:07:46;;;;;;;3.33;0.50;;;12.00;99.90;;;;;;5055048;28;20423;-85
2022/11/11 00:10:15;;;;;;;4.63;1.07;;;12.00;99.90;;;;;;5072895;28;20938;-86
2022/11/11 00:12:40;;;;;;;13.33;1.60;;;12.00;99.90;;;;;;5054488;28;20168;-86
2022/11/11 00:15:06;;;;;;;4.90;0.90;;;12.00;99.90;;;;;;5072766;28;20466;-85
2022/11/11 00:26:01;;;;;;;2.23;0.60;;;11.90;99.90;;;;;;5072737;28;20430;-84
2022/11/11 00:28:26;;;;;;;5.37;1.17;;;12.00;99.90;;;;;;5072281;28;20773;-84
2022/11/11 00:31:00;;;;;;;6.30;1.27;;;12.00;99.90;;;;;;5054570;28;20421;-85
2022/11/11 00:33:28;;;;;;;3.67;0.80;;;11.90;99.90;;;;;;5072577;28;20232;-85
2022/11/11 00:35:54;;;;;;;2.97;1.10;;;12.00;99.90;;;;;;5072529;28;20439;-86
2022/11/11 00:41:09;;;;;;;2.30;1.07;;;12.00;99.90;;;;;;5072941;28;20183;-85
2022/11/11 00:43:34;;;;;;;3.23;1.07;;;12.00;99.90;;;;;;5072191;28;20492;-85
2022/11/11 00:51:28;;;;;;;5.67;1.60;;;12.00;99.90;;;;;;5072523;28;20784;-85
2022/11/11 00:53:54;;;;;;;2.60;1.10;;;12.00;99.90;;;;;;5072316;28;20459;-85
2022/11/11 00:56:21;;;;;;;3.00;1.27;;;12.00;99.90;;;;;;5072461;28;20274;-83
2022/11/11 00:58:46;;;;;;;2.73;1.63;;;12.00;99.90;;;;;;5071706;28;20253;-85
2022/11/11 01:01:12;;;;;;;6.97;1.00;;;12.00;99.90;;;;;;5072325;28;20453;-86
2022/11/11 01:03:37;;;;;;;8.17;3.00;;;11.90;99.90;;;;;;5072514;28;20735;-86
2022/11/11 01:06:04;;;;;;;4.23;2.13;;;12.00;99.90;;;;;;5072932;28;20173;-87
2022/11/11 01:08:30;;;;;;;3.37;1.20;;;12.00;99.90;;;;;;5072764;28;20169;-87
2022/11/11 01:10:56;;;;;;;4.10;1.47;;;12.00;99.90;;;;;;5054887;28;20422;-88
2022/11/11 01:13:24;;;;;;;4.17;1.20;;;11.90;99.90;;;;;;5072296;28;20775;-88
2022/11/11 01:15:53;;;;;;;9.43;1.47;;;11.90;99.90;;;;;;5075612;28;20201;-90
2022/11/11 01:18:23;;;;;;;3.90;1.30;;;11.90;99.90;;;;;;5076674;28;20429;-88
2022/11/11 01:20:58;;;;;;;4.30;1.70;;;11.90;99.90;;;;;;5057677;28;20434;-86
2022/11/11 01:23:24;;;;;;;5.83;1.93;;;11.90;99.90;;;;;;5058312;28;20451;-87
2022/11/11 01:25:51;;;;;;;4.20;1.57;;;11.90;99.90;;;;;;5076583;28;20421;-85
2022/11/11 01:28:17;;;;;;;2.40;1.30;;;11.90;99.90;;;;;;5077176;28;20661;-88
2022/11/11 01:30:45;;;;;;;4.37;1.90;;;11.90;99.90;;;;;;5077181;28;20419;-86
2022/11/11 01:33:11;;;;;;;3.93;1.90;;;11.90;99.90;;;;;;5076035;28;20582;-87
2022/11/11 01:35:39;;;;;;;8.17;1.90;;;11.90;99.90;;;;;;5074850;28;20511;-88
2022/11/11 01:38:05;;;;;;;2.67;1.10;;;11.90;99.90;;;;;;5058426;28;20179;-88
2022/11/11 01:40:30;;;;;;;7.00;2.67;;;11.90;99.90;;;;;;5076538;28;20509;-89
2022/11/11 01:43:05;;;;;;;5.00;1.40;;;11.90;99.90;;;;;;5058161;28;20452;-88
2022/11/11 01:45:58;;;;;;;4.60;1.47;;;11.90;99.90;;;;;;5058279;28;20174;-88
2022/11/11 01:51:45;;;;;;;4.23;2.10;;;11.90;99.90;;;;;;5076346;28;20445;-86
2022/11/11 01:54:36;;;;;;;3.33;1.83;;;11.90;99.90;;;;;;5058208;28;20558;-87
2022/11/11 01:57:14;;;;;;;5.73;1.60;;;11.90;99.90;;;;;;5057988;28;20420;-88
2022/11/11 01:59:42;;;;;;;4.53;1.90;;;11.90;99.90;;;;;;5058046;28;20462;-89
2022/11/11 02:02:23;;;;;;;3.00;1.30;;;11.90;99.90;;;;;;5058131;28;20418;-88
2022/11/11 02:07:38;;;;;;;6.33;2.80;;;11.90;99.90;;;;;;5076240;28;20988;-88
2022/11/11 02:10:08;;;;;;;4.20;2.00;;;11.80;99.90;;;;;;5057909;28;20423;-87
2022/11/11 02:15:18;;;;;;;7.93;2.63;;;11.90;99.90;;;;;;5075784;28;21063;-87
2022/11/11 02:17:46;;;;;;;7.83;1.87;;;11.80;99.90;;;;;;5075634;28;20507;-88
2022/11/11 02:20:21;;;;;;;4.03;1.83;;;11.80;99.90;;;;;;5057516;28;20182;-88
2022/11/11 02:22:58;;;;;;;6.37;1.90;;;11.80;99.90;;;;;;5075565;28;20422;-87
2022/11/11 02:25:27;;;;;;;6.00;1.50;;;11.80;99.90;;;;;;5096931;28;20484;-90
2022/11/11 02:27:58;;;;;;;3.27;2.00;;;11.80;99.90;;;;;;5099311;28;20438;-90
2022/11/11 02:30:24;;;;;;;4.07;2.00;;;11.70;99.90;;;;;;5098690;28;20494;-89
2022/11/11 02:32:51;;;;;;;4.27;1.37;;;11.70;99.90;;;;;;5082074;28;20415;-88
2022/11/11 02:35:24;;;;;;;4.70;1.63;;;11.70;99.90;;;;;;5061009;28;20709;-86
2022/11/11 02:37:52;;;;;;;2.90;1.37;;;11.70;99.90;;;;;;5058240;28;20415;-87
2022/11/11 02:40:37;;;;;;;4.30;1.37;;;11.60;99.90;;;;;;5076473;28;20415;-87
2022/11/11 02:43:03;;;;;;;4.33;1.23;;;11.60;99.90;;;;;;5075731;28;20832;-89
2022/11/11 02:45:29;;;;;;;10.13;2.43;;;11.60;99.90;;;;;;5075569;28;20400;-88
2022/11/11 02:47:55;;;;;;;2.43;1.03;;;11.60;99.90;;;;;;5075464;28;20424;-86
2022/11/11 02:50:20;;;;;;;7.13;1.67;;;11.60;99.90;;;;;;5075392;28;20412;-89
2022/11/11 02:52:46;;;;;;;3.00;1.13;;;11.60;99.90;;;;;;5074986;28;20380;-88
2022/11/11 02:55:11;;;;;;;6.30;2.40;;;11.60;99.90;;;;;;5057172;28;20557;-88
2022/11/11 02:57:37;;;;;;;4.50;2.07;;;11.60;99.90;;;;;;5073554;28;20178;-87
2022/11/11 03:00:04;;;;;;;3.70;1.50;;;11.50;99.90;;;;;;5075002;28;20224;-88
2022/11/11 03:02:30;;;;;;;5.07;1.77;;;11.50;99.90;;;;;;5056895;28;20182;-89
2022/11/11 03:04:56;;;;;;;5.10;2.20;;;11.50;99.90;;;;;;5074277;28;20411;-88
2022/11/11 03:07:23;;;;;;;3.83;1.23;;;11.60;99.90;;;;;;5075303;28;20419;-90
2022/11/11 03:09:49;;;;;;;6.80;2.10;;;11.60;99.90;;;;;;5075217;28;20414;-89
2022/11/11 03:12:15;;;;;;;5.00;1.70;;;11.50;99.90;;;;;;5074525;28;20816;-90
2022/11/11 03:14:41;;;;;;;5.70;1.90;;;11.50;99.90;;;;;;5057264;28;20481;-89
2022/11/11 03:19:51;;;;;;;4.47;2.20;;;11.50;99.90;;;;;;5075140;28;20183;-92
2022/11/11 03:22:16;;;;;;;6.67;2.00;;;11.50;99.90;;;;;;5057123;28;20434;-88
2022/11/11 03:27:26;;;;;;;7.00;1.67;;;11.50;99.90;;;;;;5074458;28;20582;-88
2022/11/11 03:29:51;;;;;;;4.13;1.33;;;11.50;99.90;;;;;;5074373;28;20421;-89
2022/11/11 03:32:17;;;;;;;7.13;1.63;;;11.50;99.90;;;;;;5056342;28;20177;-88
2022/11/11 03:34:42;;;;;;;3.33;1.40;;;11.40;99.90;;;;;;5072959;28;20266;-88
2022/11/11 03:39:53;;;;;;;4.03;1.63;;;11.40;99.90;;;;;;5074421;28;20184;-88
2022/11/11 03:42:19;;;;;;;5.70;1.70;;;11.40;99.90;;;;;;5073823;28;20413;-88
2022/11/11 03:44:45;;;;;;;9.60;2.53;;;11.40;99.90;;;;;;5074406;28;20173;-88
2022/11/11 03:47:10;;;;;;;3.60;1.50;;;11.40;99.90;;;;;;5072894;28;20176;-89
2022/11/11 03:49:36;;;;;;;8.10;2.27;;;11.40;99.90;;;;;;5072864;28;20181;-90
2022/11/11 03:52:01;;;;;;;6.77;2.20;;;11.40;99.90;;;;;;5072868;28;20176;-88
2022/11/11 03:54:27;;;;;;;4.40;1.83;;;11.40;99.90;;;;;;5072626;28;20240;-89
2022/11/11 03:57:29;;;;;;;5.60;1.87;;;11.40;99.90;;;;;;5072135;28;20172;-88
2022/11/11 03:59:38;;;;;;;4.17;1.93;;;11.30;99.90;;;;;;5073425;28;20649;-91
2022/11/11 04:10:21;;;;;;;4.33;1.57;;;11.30;99.90;;;;;;5073717;28;20454;-87
2022/11/11 04:18:16;;;;;;;4.73;2.77;;;11.30;99.90;;;;;;5073332;28;20973;-87
2022/11/11 04:23:26;;;;;;;3.67;1.80;;;11.30;99.90;;;;;;5073322;28;20199;-88
2022/11/11 04:25:54;;;;;;;7.73;1.80;;;11.30;99.90;;;;;;5072842;28;20420;-86
2022/11/11 04:31:04;;;;;;;8.57;2.70;;;11.20;99.90;;;;;;5073482;28;20420;-87
2022/11/11 04:33:29;;;;;;;6.83;2.10;;;11.20;99.90;;;;;;5073382;28;20425;-88
2022/11/11 04:35:54;;;;;;;7.90;2.90;;;11.20;99.90;;;;;;5072073;28;20631;-87
2022/11/11 04:41:11;;;;;;;6.33;2.57;;;11.20;99.90;;;;;;5049160;28;20179;-88
2022/11/11 04:46:21;;;;;;;4.70;3.30;;;11.10;99.90;;;;;;5073639;28;20229;-88
2022/11/11 04:48:47;;;;;;;4.30;2.07;;;11.10;99.90;;;;;;5054459;28;20423;-88
2022/11/11 04:51:12;;;;;;;8.20;3.50;;;11.10;99.90;;;;;;5072986;28;20176;-87
2022/11/11 04:53:38;;;;;;;5.70;2.27;;;11.10;99.90;;;;;;5072962;28;20211;-87
2022/11/11 04:59:14;;;;;;;6.90;2.03;;;11.00;99.90;;;;;;5072784;28;20286;-88
2022/11/11 05:03:14;;;;;;;6.30;2.60;;;11.00;99.90;;;;;;5072728;28;20911;-87
2022/11/11 05:04:19;;;;;;;5.53;2.00;;;11.10;99.90;;;;;;5073017;28;20448;-89
2022/11/11 05:09:28;;;;;;;6.57;2.50;;;10.90;99.90;;;;;;5073190;28;20209;-88
2022/11/11 05:11:53;;;;;;;5.90;3.33;;;11.00;99.90;;;;;;5054379;28;20840;-88
2022/11/11 05:22:38;;;;;;;6.93;2.90;;;11.00;99.90;;;;;;5072929;28;20503;-87
2022/11/11 05:27:48;;;;;;;5.50;2.87;;;10.90;99.90;;;;;;5072569;28;20406;-88
2022/11/11 05:30:15;;;;;;;7.90;2.73;;;10.90;99.90;;;;;;5054665;28;20919;-87
2022/11/11 05:32:41;;;;;;;4.80;2.77;;;10.80;99.90;;;;;;5054573;28;20180;-88
2022/11/11 05:35:08;;;;;;;4.80;2.10;;;10.80;99.90;;;;;;5072327;28;20990;-85
2022/11/11 05:37:33;;;;;;;10.90;2.73;;;10.80;99.90;;;;;;5072372;28;20168;-85
2022/11/11 05:39:59;;;;;;;8.03;2.83;;;10.80;99.90;;;;;;5054526;28;20432;-85
2022/11/11 05:42:24;;;;;;;5.23;2.57;;;10.80;99.90;;;;;;5072460;28;20623;-88
2022/11/11 05:44:50;;;;;;;6.43;3.00;;;10.80;99.90;;;;;;5072430;28;20171;-84
2022/11/11 05:47:16;;;;;;;6.40;2.80;;;10.80;99.90;;;;;;5072346;28;20176;-84
2022/11/11 05:49:41;;;;;;;8.93;3.70;;;10.80;99.90;;;;;;5072414;28;20305;-84
2022/11/11 05:52:09;;;;;;;9.80;4.23;;;10.80;99.90;;;;;;5054353;28;20176;-84
2022/11/11 05:54:35;;;;;;;6.10;2.50;;;10.80;99.90;;;;;;5072184;28;20208;-84
2022/11/11 05:57:00;;;;;;;12.17;3.67;;;10.80;99.90;;;;;;5071953;28;20414;-85
2022/11/11 05:59:26;;;;;;;5.20;2.97;;;10.80;99.90;;;;;;5070883;28;20230;-85
2022/11/11 06:01:51;;;;;;;6.90;3.40;;;10.80;99.90;;;;;;5075500;28;20248;-83
2022/11/11 06:04:17;;;;;;;10.97;3.70;;;10.80;99.90;;;;;;5075599;28;20249;-84
2022/11/11 06:06:42;;;;;;;7.20;3.70;;;10.80;99.90;;;;;;5057842;28;20185;-84
2022/11/11 06:09:08;;;;;;;8.33;3.23;;;10.80;99.90;;;;;;5075643;28;20173;-89
2022/11/11 06:11:34;;;;;;;9.47;3.97;;;10.90;99.90;;;;;;5075330;28;20175;-85
2022/11/11 06:13:59;;;;;;;9.83;4.70;;;10.80;99.90;;;;;;5075559;28;20290;-84
2022/11/11 06:16:25;;;;;;;7.30;3.50;;;10.80;99.90;;;;;;5075786;28;20179;-86
2022/11/11 06:18:50;;;;;;;5.37;2.67;;;10.80;99.90;;;;;;5075636;28;20172;-86
2022/11/11 06:21:16;;;;;;;7.77;4.20;;;10.80;99.90;;;;;;5069090;28;20211;-87
2022/11/11 06:23:43;;;;;;;6.20;3.63;;;10.80;99.90;;;;;;5064292;28;20407;-84
2022/11/11 06:26:17;;;;;;;7.67;3.50;;;10.80;99.90;;;;;;5048828;28;20191;-85
2022/11/11 06:28:50;;;;;;;5.40;3.77;;;10.80;99.90;;;;;;5055468;28;20417;-86
2022/11/11 06:31:22;;;;;;;6.83;3.70;;;10.80;99.90;;;;;;5075384;28;20415;-85
2022/11/11 06:33:47;;;;;;;9.10;4.70;;;10.80;99.90;;;;;;5056779;28;21174;-87
2022/11/11 06:36:15;;;;;;;11.40;4.63;;;10.80;99.90;;;;;;5075053;28;20422;-84
2022/11/11 06:38:41;;;;;;;12.77;4.50;;;10.80;99.90;;;;;;5073525;28;20184;-86
2022/11/11 06:41:09;;;;;;;8.57;3.00;;;10.80;99.90;;;;;;5073633;28;20419;-87
2022/11/11 06:43:34;;;;;;;9.13;4.73;;;10.80;99.90;;;;;;5055868;28;20429;-84
2022/11/11 06:46:00;;;;;;;7.23;4.30;;;10.80;99.90;;;;;;5057019;28;20982;-86
2022/11/11 06:48:27;;;;;;;13.13;6.50;;;10.80;99.90;;;;;;5075284;28;20272;-89
2022/11/11 06:50:54;;;;;;;13.53;5.50;;;10.70;99.90;;;;;;5075283;28;20541;-86
2022/11/11 06:53:21;;;;;;;8.40;4.47;;;10.80;99.90;;;;;;5075387;28;20407;-88
2022/11/11 06:55:47;;;;;;;8.17;5.00;;;10.80;99.90;;;;;;5057150;28;20481;-89
2022/11/11 06:58:17;;;;;;;9.43;4.83;;;10.70;99.90;;;;;;5057886;28;20428;-90
2022/11/11 07:00:44;;;;;;;7.63;4.37;;;10.70;99.90;;;;;;5076051;28;20692;-87
2022/11/11 07:03:12;;;;;;;8.50;4.43;;;10.80;99.90;;;;;;5049170;28;20426;-91
2022/11/11 07:05:38;;;;;;;10.37;4.70;;;10.80;99.90;;;;;;5068082;28;20462;-91
2022/11/11 07:08:05;;;;;;;7.17;4.60;;;10.70;99.90;;;;;;5057552;28;20511;-87
2022/11/11 07:10:32;;;;;;;9.33;5.13;;;10.70;99.90;;;;;;5057362;28;20415;-91
2022/11/11 07:12:58;;;;;;;14.37;5.50;;;10.70;99.90;;;;;;5070553;28;20788;-90
2022/11/11 07:15:25;;;;;;;10.83;5.47;;;10.70;99.90;;;;;;5060875;28;20472;-88
2022/11/11 07:17:51;;;;;;;18.37;7.10;;;10.80;99.90;;;;;;5055236;28;20175;-90
2022/11/11 07:20:16;;;;;;;12.80;5.67;;;10.70;99.90;;;;;;5070861;28;20433;-91
2022/11/11 07:22:42;;;;;;;9.70;4.67;;;10.70;99.90;;;;;;5075339;28;20412;-88
2022/11/11 07:25:08;;;;;;;9.77;5.80;;;10.70;99.90;;;;;;5073749;28;20208;-86
2022/11/11 07:27:43;;;;;;;9.23;5.00;;;10.70;99.90;;;;;;5074931;28;20653;-91
2022/11/11 07:30:10;;;;;;;9.77;5.40;;;10.80;99.90;;;;;;5057226;28;20239;-89
2022/11/11 07:32:36;;;;;;;8.93;4.77;;;10.70;99.90;;;;;;5056409;28;20411;-90
2022/11/11 07:35:03;;;;;;;12.57;5.93;;;10.70;99.90;;;;;;5056400;28;20478;-86
2022/11/11 07:37:30;;;;;;;13.90;6.40;;;10.70;99.90;;;;;;5056941;28;20417;-87
2022/11/11 07:39:55;;;;;;;9.30;5.67;;;10.70;99.90;;;;;;5056791;28;20945;-88
2022/11/11 07:42:21;;;;;;;8.47;4.70;;;10.80;99.90;;;;;;5056481;28;20429;-88
2022/11/11 07:44:47;;;;;;;10.90;6.50;;;10.80;99.90;;;;;;5056760;28;20636;-89
2022/11/11 07:47:12;;;;;;;13.13;6.80;;;10.70;99.90;;;;;;5075334;28;20178;-93
2022/11/11 07:49:38;;;;;;;10.60;6.20;;;10.80;99.90;;;;;;5074121;28;20180;-88
2022/11/11 07:52:04;;;;;;;9.03;5.17;;;10.80;99.90;;;;;;5075346;28;20213;-91
2022/11/11 07:54:30;;;;;;;13.00;5.77;;;10.80;99.90;;;;;;5074706;28;20472;-90
2022/11/11 07:56:55;;;;;;;11.10;6.90;;;10.80;99.90;;;;;;5058896;28;20407;-90
2022/11/11 07:59:21;;;;;;;9.57;6.50;;;10.80;99.90;;;;;;5076763;28;20225;-88
2022/11/11 08:01:46;;;;;;;11.87;7.47;;;10.80;99.90;;;;;;5077883;28;20221;-90
2022/11/11 08:04:12;;;;;;;11.60;5.73;;;10.80;99.90;;;;;;5074212;28;20543;-90
2022/11/11 08:06:37;;;;;;;16.70;6.83;;;10.80;99.90;;;;;;5074282;28;20183;-88
2022/11/11 08:09:03;;;;;;;13.70;7.50;;;10.90;99.90;;;;;;5072871;28;20198;-89
2022/11/11 08:14:14;;;;;;;11.13;5.53;;;10.90;99.90;;;;;;5073850;28;20289;-88
2022/11/11 08:16:39;;;;;;;15.23;7.63;;;10.90;99.90;;;;;;5073057;28;20453;-90
2022/11/11 08:19:05;;;;;;;10.63;6.50;;;10.90;99.90;;;;;;5056279;28;20201;-87
2022/11/11 08:21:31;;;;;;;12.23;7.33;;;10.90;99.90;;;;;;5074909;28;20195;-89
2022/11/11 08:23:56;;;;;;;12.40;6.23;;;10.90;99.90;;;;;;5057049;28;20209;-91
2022/11/11 08:26:23;;;;;;;13.77;6.80;;;10.90;99.90;;;;;;5074992;28;20254;-92
2022/11/11 08:28:50;;;;;;;13.60;7.63;;;11.00;99.90;;;;;;5074717;28;20165;-92
2022/11/11 08:31:16;;;;;;;11.03;6.43;;;11.00;99.90;;;;;;5057238;28;20420;-91
2022/11/11 08:33:44;;;;;;;15.03;7.23;;;11.10;99.90;;;;;;5061676;28;20416;-92
2022/11/11 08:36:10;;;;;;;9.03;7.10;;;11.10;99.90;;;;;;5079500;28;20195;-90
2022/11/11 08:38:37;;;;;;;11.03;6.27;;;11.10;99.90;;;;;;5080367;28;20499;-93
2022/11/11 08:41:05;;;;;;;12.87;8.40;;;11.20;99.90;;;;;;5078844;28;20421;-91
2022/11/11 08:43:31;;;;;;;13.53;7.43;;;11.20;99.90;;;;;;5080573;28;20407;-91
2022/11/11 08:46:02;;;;;;;12.13;6.97;;;11.20;99.90;;;;;;5077598;28;20426;-86
2022/11/11 08:48:32;;;;;;;15.40;6.83;;;11.20;99.90;;;;;;5080021;28;20417;-88
2022/11/11 08:50:58;;;;;;;10.80;6.40;;;11.20;99.90;;;;;;5078578;28;20406;-86
2022/11/11 08:53:23;;;;;;;10.20;6.20;;;11.20;99.90;;;;;;5061498;28;20424;-87
2022/11/11 08:55:49;;;;;;;10.80;6.80;;;11.30;99.90;;;;;;5075187;28;20208;-87
2022/11/11 08:58:15;;;;;;;10.20;6.17;;;11.30;99.90;;;;;;5074228;28;20407;-85
2022/11/11 09:00:41;;;;;;;12.00;5.93;;;11.30;99.90;;;;;;5055849;28;20225;-88
2022/11/11 09:03:10;;;;;;;9.43;6.57;;;11.30;99.90;;;;;;5056294;28;20174;-85
2022/11/11 09:05:39;;;;;;;10.17;7.47;;;11.40;99.90;;;;;;5074002;28;20473;-85
2022/11/11 09:08:06;;;;;;;9.13;5.80;;;11.40;99.90;;;;;;5074054;28;20422;-84
2022/11/11 09:10:33;;;;;;;14.57;7.40;;;11.40;99.90;;;;;;5073562;28;20504;-85
2022/11/11 09:12:59;;;;;;;10.90;6.73;;;11.40;99.90;;;;;;5073972;28;20405;-84
2022/11/11 09:15:26;;;;;;;9.50;6.50;;;11.40;99.90;;;;;;5073213;28;20466;-84
2022/11/11 09:17:52;;;;;;;13.50;7.03;;;11.40;99.90;;;;;;5073861;28;20412;-82
2022/11/11 09:20:18;;;;;;;13.30;7.27;;;11.40;99.90;;;;;;5075333;28;20896;-90
2022/11/11 09:22:45;;;;;;;13.70;7.47;;;11.40;99.90;;;;;;5077643;28;20407;-90
2022/11/11 09:25:11;;;;;;;13.00;6.83;;;11.40;99.90;;;;;;5077581;28;20425;-89
2022/11/11 09:27:37;;;;;;;11.47;5.83;;;11.40;99.90;;;;;;5075950;28;20404;-82
2022/11/11 09:30:04;;;;;;;10.73;6.40;;;11.40;99.90;;;;;;5073285;28;20425;-82
2022/11/11 09:32:33;;;;;;;12.20;6.63;;;11.30;99.90;;;;;;5073521;28;20183;-81
2022/11/11 09:34:59;;;;;;;18.30;6.40;;;11.30;99.90;;;;;;5072812;28;20473;-83
2022/11/11 09:37:25;;;;;;;10.67;6.10;;;11.30;99.90;;;;;;5076266;28;20416;-83
2022/11/11 09:39:50;;;;;;;10.63;7.40;;;11.30;99.90;;;;;;5076406;28;20926;-83
2022/11/11 09:42:38;;;;;;;11.67;6.93;;;11.40;99.90;;;;;;5075758;28;20516;-82
2022/11/11 09:45:14;;;;;;;11.30;6.90;;;11.40;99.90;;;;;;5076254;28;20550;-83
2022/11/11 09:47:58;;;;;;;12.03;6.37;;;11.50;99.90;;;;;;5076140;28;20414;-84
2022/11/11 09:50:26;;;;;;;9.03;6.60;;;11.50;99.90;;;;;;5076113;28;20768;-83
2022/11/11 09:53:15;;;;;;;12.43;5.77;;;11.50;99.90;;;;;;5075983;28;20502;-82
2022/11/11 09:56:08;;;;;;;10.40;6.27;;;11.40;99.90;;;;;;5075650;28;20466;-83
2022/11/11 09:58:40;;;;;;;11.53;6.57;;;11.50;99.90;;;;;;5072694;28;20427;-83
2022/11/11 10:01:11;;;;;;;9.53;7.30;;;11.50;99.90;;;;;;5075998;28;20417;-83
2022/11/11 10:03:51;;;;;;;10.70;6.80;;;11.40;99.90;;;;;;5075744;28;20415;-83
2022/11/11 10:06:27;;;;;;;11.30;6.63;;;11.40;99.90;;;;;;5075782;28;20853;-80
2022/11/11 10:09:01;;;;;;;11.73;8.17;;;11.40;99.90;;;;;;5075715;28;20899;-80
2022/11/11 10:11:42;;;;;;;17.20;7.27;;;11.30;99.90;;;;;;5075321;28;20415;-80
2022/11/11 10:14:07;;;;;;;14.73;6.70;;;11.30;99.90;;;;;;5075584;28;22364;-81
2022/11/11 10:16:41;;;;;;;14.67;6.90;;;11.40;99.90;;;;;;5075548;28;20534;-81
2022/11/11 10:19:44;;;;;;;13.97;6.83;;;11.40;99.90;;;;;;5075575;28;20169;-81
2022/11/11 10:22:19;;;;;;;12.03;6.37;;;11.50;99.90;;;;;;5071225;28;20523;-81
2022/11/11 10:24:52;;;;;;;17.47;7.17;;;11.50;99.90;;;;;;5075433;28;20420;-80
2022/11/11 10:27:20;;;;;;;12.37;6.00;;;11.60;99.90;;;;;;5075345;28;21001;-82
2022/11/11 10:29:47;;;;;;;13.67;6.90;;;11.50;99.90;;;;;;5075300;28;20499;-81
2022/11/11 10:32:23;;;;;;;16.83;8.23;;;11.50;99.90;;;;;;5075239;28;20421;-81
2022/11/11 10:34:49;;;;;;;10.90;7.80;;;11.50;99.90;;;;;;5075151;28;20473;-81
2022/11/11 10:37:22;;;;;;;11.30;7.30;;;11.40;99.90;;;;;;5075179;28;20803;-82
2022/11/11 10:40:11;;;;;;;13.90;9.13;;;11.40;99.90;;;;;;5074749;28;20263;-82
2022/11/11 10:42:36;;;;;;;13.20;7.57;;;11.50;99.90;;;;;;5075098;28;20888;-82
2022/11/11 10:45:12;;;;;;;18.03;8.40;;;11.50;99.90;;;;;;5075070;28;20418;-81
2022/11/11 10:47:45;;;;;;;16.37;8.43;;;11.60;99.90;;;;;;5073822;28;20172;-82
2022/11/11 10:50:25;;;;;;;11.30;7.63;;;11.50;99.90;;;;;;5075048;28;20403;-81
2022/11/11 10:52:59;;;;;;;14.23;7.00;;;11.50;99.90;;;;;;5074936;28;20398;-81
2022/11/11 10:56:02;;;;;;;11.83;6.63;;;11.50;99.90;;;;;;5074448;28;20472;-82
2022/11/11 10:58:59;;;;;;;13.67;7.77;;;11.40;99.90;;;;;;5050270;28;20481;-82
2022/11/11 11:01:46;;;;;;;15.63;8.10;;;11.40;99.90;;;;;;5056699;28;20855;-81
2022/11/11 11:04:25;;;;;;;10.50;7.17;;;11.50;99.90;;;;;;5074770;28;20415;-82
2022/11/11 11:06:52;;;;;;;13.93;7.37;;;11.50;99.90;;;;;;5074619;28;20761;-81
2022/11/11 11:09:28;;;;;;;9.17;6.67;;;11.50;99.90;;;;;;5074566;28;20414;-81
2022/11/11 11:12:15;;;;;;;12.10;7.00;;;11.50;99.90;;;;;;5074229;28;20414;-81
2022/11/11 11:14:54;;;;;;;13.30;7.37;;;11.60;99.90;;;;;;5074411;28;20508;-82
2022/11/11 11:17:29;;;;;;;13.00;7.43;;;11.50;99.90;;;;;;5056972;28;20427;-82
2022/11/11 11:20:17;;;;;;;15.67;7.47;;;11.40;99.90;;;;;;5074533;28;20414;-82
2022/11/11 11:23:01;;;;;;;13.27;7.17;;;11.50;99.90;;;;;;5074494;28;20758;-83
2022/11/11 11:25:29;;;;;;;14.07;8.07;;;11.50;99.90;;;;;;5074033;28;20766;-83
2022/11/11 11:28:08;;;;;;;12.00;8.27;;;11.50;99.90;;;;;;5074248;28;20419;-82
2022/11/11 11:30:34;;;;;;;12.43;6.70;;;11.50;99.90;;;;;;5056275;28;20429;-83
2022/11/11 11:33:05;;;;;;;12.53;8.17;;;11.50;99.90;;;;;;5074260;28;20414;-81
2022/11/11 11:35:43;;;;;;;14.83;8.13;;;11.50;99.90;;;;;;5074047;28;20475;-82
2022/11/11 11:38:10;;;;;;;11.73;7.53;;;11.50;99.90;;;;;;5073821;28;20430;-81
2022/11/11 11:41:02;;;;;;;10.70;7.07;;;11.40;99.90;;;;;;5073781;28;20423;-82
2022/11/11 11:43:38;;;;;;;12.50;6.90;;;11.50;99.90;;;;;;5069903;28;20458;-83
2022/11/11 11:46:15;;;;;;;14.47;7.80;;;11.50;99.90;;;;;;5074048;28;20800;-83
2022/11/11 11:49:02;;;;;;;17.27;7.40;;;11.50;99.90;;;;;;5073860;28;20419;-84
2022/11/11 11:51:39;;;;;;;12.10;7.60;;;11.50;99.90;;;;;;5073892;28;20907;-84
2022/11/11 11:54:13;;;;;;;12.20;8.13;;;11.50;99.90;;;;;;5073787;28;20430;-85
2022/11/11 11:56:50;;;;;;;9.73;6.57;;;11.70;99.90;;;;;;5073510;28;20419;-84
2022/11/11 11:59:27;;;;;;;14.33;7.23;;;11.60;99.90;;;;;;5073449;28;21034;-84
2022/11/11 12:02:26;;;;;;;9.80;5.93;;;11.60;99.90;;;;;;5073585;28;20954;-84
2022/11/11 12:05:07;;;;;;;10.43;5.90;;;11.70;99.90;;;;;;5073431;28;20911;-81
2022/11/11 12:08:03;;;;;;;12.37;5.83;;;11.70;99.90;;;;;;5073536;28;20446;-81
2022/11/11 12:10:57;;;;;;;10.47;6.53;;;11.70;99.90;;;;;;5073092;28;20494;-81
2022/11/11 12:13:48;;;;;;;9.23;6.07;;;11.60;99.90;;;;;;5073416;28;20957;-82
2022/11/11 12:16:26;;;;;;;11.00;6.67;;;11.70;99.90;;;;;;5055338;28;20475;-81
2022/11/11 12:19:15;;;;;;;10.47;6.23;;;11.70;99.90;;;;;;5073444;28;20411;-81
2022/11/11 12:21:52;;;;;;;14.47;6.67;;;11.80;99.90;;;;;;5073311;28;20556;-82
2022/11/11 12:24:38;;;;;;;13.03;6.93;;;11.80;99.90;;;;;;5073242;28;20419;-82
2022/11/11 12:27:22;;;;;;;13.60;6.93;;;11.80;99.90;;;;;;5073277;28;20425;-82
2022/11/11 12:30:01;;;;;;;13.00;5.60;;;11.80;99.90;;;;;;5073525;28;20531;-83
2022/11/11 12:32:48;;;;;;;7.87;5.40;;;11.80;99.90;;;;;;5073966;28;20399;-83
2022/11/11 12:35:25;;;;;;;7.87;5.73;;;11.80;99.90;;;;;;5074190;28;20883;-83
2022/11/11 12:38:04;;;;;;;6.27;4.83;;;11.80;99.90;;;;;;5073845;28;20459;-83
2022/11/11 12:41:11;;;;;;;7.27;5.13;;;11.80;99.90;;;;;;5055861;28;20411;-82
2022/11/11 12:43:49;;;;;;;8.33;5.30;;;11.80;99.90;;;;;;5073761;28;20403;-82
2022/11/11 12:46:20;;;;;;;8.80;3.40;;;11.80;99.90;;;;;;5073942;28;20411;-82
2022/11/11 12:49:05;;;;;;;8.10;3.93;;;11.80;99.90;;;;;;5055907;28;20426;-82
2022/11/11 12:52:11;;;;;;;5.57;3.60;;;11.80;99.90;;;;;;5073882;28;20415;-82
2022/11/11 12:54:45;;;;;;;8.30;4.70;;;11.80;99.90;;;;;;5055116;28;20460;-81
2022/11/11 12:57:41;;;;;;;8.20;3.50;;;11.90;99.90;;;;;;5073439;28;20500;-82
2022/11/11 13:00:23;;;;;;;7.10;4.23;;;11.80;99.90;;;;;;5072508;28;20482;-82
2022/11/11 13:03:10;;;;;;;7.30;4.50;;;11.80;99.90;;;;;;5072838;28;20406;-82
2022/11/11 13:06:02;;;;;;;7.07;4.43;;;11.80;99.90;;;;;;5054940;28;20408;-83
2022/11/11 13:09:17;;;;;;;8.77;4.53;;;11.90;99.90;;;;;;5072837;28;20428;-83
2022/11/11 13:12:18;;;;;;;5.90;3.77;;;11.90;99.90;;;;;;5040689;28;20411;-82
2022/11/11 13:15:13;;;;;;;9.73;4.80;;;11.90;99.90;;;;;;5076857;28;21017;-81
2022/11/11 13:17:38;;;;;;;6.73;4.50;;;11.90;99.90;;;;;;5076850;28;20465;-82
2022/11/11 13:20:25;;;;;;;9.57;4.60;;;11.80;99.90;;;;;;5076702;28;20404;-82
2022/11/11 13:22:51;;;;;;;7.00;3.50;;;11.90;99.90;;;;;;5076681;28;20169;-82
2022/11/11 13:25:22;;;;;;;10.70;3.90;;;11.80;99.90;;;;;;5076283;28;20409;-82
2022/11/11 13:27:57;;;;;;;5.77;4.87;;;11.80;99.90;;;;;;5076646;28;20165;-83
2022/11/11 13:30:40;;;;;;;6.63;4.10;;;11.80;99.90;;;;;;5076484;28;20412;-83
2022/11/11 13:33:17;;;;;;;7.63;4.40;;;11.70;99.90;;;;;;5076482;28;20409;-82
2022/11/11 13:35:55;;;;;;;8.03;4.63;;;11.80;99.90;;;;;;5076469;28;20509;-81
2022/11/11 13:38:26;;;;;;;7.97;4.60;;;11.70;99.90;;;;;;5076451;28;20908;-82
2022/11/11 13:40:54;;;;;;;7.93;4.63;;;11.80;99.90;;;;;;5076043;28;20507;-82
2022/11/11 13:43:45;;;;;;;8.37;4.70;;;11.70;99.90;;;;;;5076314;28;20399;-82
2022/11/11 13:46:34;;;;;;;9.40;5.33;;;11.80;99.90;;;;;;5076303;28;20423;-82
2022/11/11 13:49:04;;;;;;;8.63;5.53;;;11.80;99.90;;;;;;5076275;28;20422;-82
2022/11/11 13:51:30;;;;;;;10.50;5.73;;;11.80;99.90;;;;;;5076021;28;20454;-81
2022/11/11 13:53:57;;;;;;;8.13;4.97;;;11.80;99.90;;;;;;5075907;28;20419;-82
2022/11/11 13:56:44;;;;;;;7.37;5.13;;;11.80;99.90;;;;;;5057748;28;20435;-82
2022/11/11 13:59:27;;;;;;;8.83;5.77;;;11.80;99.90;;;;;;5075787;28;20452;-82
2022/11/11 14:02:17;;;;;;;8.07;4.60;;;11.90;99.90;;;;;;5075909;28;20411;-82
2022/11/11 14:05:01;;;;;;;6.80;3.87;;;11.80;99.90;;;;;;5075920;28;20500;-82
2022/11/11 14:07:46;;;;;;;7.03;4.60;;;11.90;99.90;;;;;;5075830;28;20490;-82
2022/11/11 14:10:17;;;;;;;11.53;5.10;;;11.90;99.90;;;;;;5075334;28;20427;-82
2022/11/11 14:12:50;;;;;;;6.50;4.60;;;11.90;99.90;;;;;;5075615;28;20426;-82
2022/11/11 14:15:41;;;;;;;5.70;3.67;;;11.90;99.90;;;;;;5075643;28;20464;-82
2022/11/11 14:18:35;;;;;;;9.90;4.17;;;11.90;99.90;;;;;;5075618;28;20423;-82
2022/11/11 14:21:00;;;;;;;11.80;6.37;;;11.90;99.90;;;;;;5075478;28;20402;-82
2022/11/11 14:23:35;;;;;;;9.53;6.03;;;12.00;99.90;;;;;;5075607;28;20449;-83